Jack Holland — WDF3615 — position and weather

sailwx.info

Track history (hours):
 
Tides and Currents Weather Stations Pressure Air Temp Water Temp Dewpoint Dewpoint Depression Visibility Wind Speed Wind Dir Waves Ship Positions

Jack Holland

Owner: Norfolk Tug Company, Norfolk, VA. More information available from US FCC via Universal Licensing System and Coast Guard Vessel Documentation Center.

Last reported at 2017-Oct-17 21:28 UTC. Time now 2017-Oct-19 03:37 UTC.
Position N 36°51' W 076°18'.

Length 22 m; draft 2.5 m.

Type: Tug. MMSI: 367442020.

Date/timePositionNaut miles runAvg speedWind from/ knotsBaromVisibWave heightAir tempDewpointWater temp
2017-Oct-17 21:28N 36°51' W 076°18'5 3.6
2017-Oct-17 20:08N 36°46' W 076°18'0 0.0
2017-Oct-17 20:00N 36°46' W 076°18'0 0.0
2017-Oct-17 19:23N 36°46' W 076°18'0 0.0
2017-Oct-17 18:55N 36°46' W 076°18'0 0.0
2017-Oct-17 18:06N 36°46' W 076°18'0 0.0
2017-Oct-17 17:37N 36°46' W 076°18'0 0.0
2017-Oct-17 17:14N 36°46' W 076°18'0 0.0
2017-Oct-17 16:57N 36°46' W 076°18'0 0.0
2017-Oct-17 16:30N 36°46' W 076°18'0 0.0
2017-Oct-17 15:45N 36°46' W 076°18'0 0.0
2017-Oct-17 15:10N 36°46' W 076°18'0 0.0
2017-Oct-17 14:49N 36°46' W 076°18'0 0.0
2017-Oct-17 14:30N 36°46' W 076°18'0 0.0
2017-Oct-17 13:50N 36°46' W 076°18'0 0.0
2017-Oct-17 13:29N 36°46' W 076°18'0 0.0
2017-Oct-17 13:00N 36°46' W 076°18'0 0.0
2017-Oct-17 12:13N 36°46' W 076°18'0 0.0
2017-Oct-17 11:54N 36°46' W 076°18'0 0.0
2017-Oct-17 11:00N 36°46' W 076°18'0 0.0
2017-Oct-17 10:30N 36°46' W 076°18'0 0.0
2017-Oct-17 09:49N 36°46' W 076°18'0 0.0
2017-Oct-17 09:11N 36°46' W 076°18'0 0.0
2017-Oct-17 08:40N 36°46' W 076°18'0 0.0
2017-Oct-17 08:26N 36°46' W 076°18'0 0.1
2017-Oct-17 08:00N 36°46' W 076°18'1 1.8
2017-Oct-17 07:30N 36°47' W 076°18'3 6.1
2017-Oct-17 07:00N 36°50' W 076°18'3 6.1
2017-Oct-17 06:30N 36°52' W 076°20'3 6.5
2017-Oct-17 06:00N 36°55' W 076°20'0 0.0
2017-Oct-15 23:37N 36°56' W 076°20'1 8.7
2017-Oct-15 23:27N 36°54' W 076°20'4 8.2
2017-Oct-15 23:00N 36°51' W 076°18'4 7.4
2017-Oct-15 22:30N 36°47' W 076°18'1 2.7
2017-Oct-15 22:00N 36°46' W 076°18'2 3.3
2017-Oct-15 21:30N 36°48' W 076°18'3 5.8
2017-Oct-15 21:00N 36°50' W 076°17'1 1.1
2017-Oct-15 20:30N 36°50' W 076°16'0 0.0
2017-Oct-15 20:00N 36°50' W 076°16'0 0.0
2017-Oct-15 19:30N 36°50' W 076°16'2 0.6
2017-Oct-15 15:47N 36°48' W 076°18'2 7.0
2017-Oct-15 15:30N 36°50' W 076°18'1 2.3
2017-Oct-15 15:00N 36°50' W 076°16'0 0.0
2017-Oct-15 14:00N 36°50' W 076°16'0 0.0
2017-Oct-15 13:30N 36°50' W 076°16'0 0.0
2017-Oct-15 06:39N 36°50' W 076°16'0 0.0
2017-Oct-15 06:30N 36°50' W 076°16'0 0.0
2017-Oct-15 06:00N 36°50' W 076°16'0 0.0
2017-Oct-15 05:30N 36°50' W 076°16'0 0.0
2017-Oct-15 05:00N 36°50' W 076°16'0 0.0
2017-Oct-15 04:30N 36°50' W 076°16'0 0.0
2017-Oct-15 04:00N 36°50' W 076°16'0 0.0
2017-Oct-15 03:30N 36°50' W 076°16'0 0.0
2017-Oct-15 03:00N 36°50' W 076°16'0 0.0
2017-Oct-15 02:30N 36°50' W 076°16'0 0.0
2017-Oct-15 02:00N 36°50' W 076°16'0 0.0
2017-Oct-15 01:30N 36°50' W 076°16'0 0.0
2017-Oct-15 01:00N 36°50' W 076°16'0 0.0
2017-Oct-15 00:30N 36°50' W 076°16'0 0.0
2017-Oct-15 00:00N 36°50' W 076°16'6 2.3
2017-Oct-14 21:32N 36°55' W 076°20'0 1.9
2017-Oct-14 21:29N 36°55' W 076°20'3 6.2
2017-Oct-14 21:00N 36°52' W 076°20'1 2.7
2017-Oct-14 20:30N 36°53' W 076°21'0 0.0
2017-Oct-14 19:49N 36°53' W 076°21'0 0.0
2017-Oct-14 19:30N 36°53' W 076°21'0 0.0
2017-Oct-14 18:59N 36°53' W 076°21'0 0.0
2017-Oct-14 18:30N 36°53' W 076°21'0 0.0
2017-Oct-14 16:47N 36°53' W 076°21'0 0.0
2017-Oct-14 16:26N 36°53' W 076°21'1 2.6
2017-Oct-14 15:59N 36°52' W 076°20'3 6.9
2017-Oct-14 15:30N 36°50' W 076°16'0 0.1
2017-Oct-14 14:48N 36°50' W 076°16'0 0.0
2017-Oct-14 14:29N 36°50' W 076°16'0 0.0
2017-Oct-14 14:00N 36°50' W 076°16'0 0.6
2017-Oct-14 13:30N 36°50' W 076°17'1 1.8
2017-Oct-14 13:00N 36°50' W 076°18'3 6.8
2017-Oct-14 12:30N 36°47' W 076°18'1 1.9
2017-Oct-14 12:00N 36°46' W 076°18'0 0.4
2017-Oct-14 11:30N 36°46' W 076°18'1 2.6
2017-Oct-14 11:00N 36°48' W 076°18'3 5.3
2017-Oct-14 10:30N 36°50' W 076°18'3 6.1
2017-Oct-14 10:00N 36°53' W 076°20'3 0.1
2017-Oct-13 02:00N 36°56' W 076°20'4 8.0
2017-Oct-13 01:30N 36°52' W 076°19'3 5.4
2017-Oct-13 01:00N 36°50' W 076°16'0 0.1
2017-Oct-13 00:30N 36°50' W 076°16'0 0.1
2017-Oct-13 00:00N 36°50' W 076°16'0 0.0
2017-Oct-12 23:30N 36°50' W 076°16'2 4.1
2017-Oct-12 23:00N 36°51' W 076°18'2 4.7
2017-Oct-12 22:31N 36°53' W 076°20'0 0.6
2017-Oct-12 21:59N 36°53' W 076°20'2 3.2
2017-Oct-12 21:31N 36°52' W 076°19'0 0.0
2017-Oct-12 21:00N 36°52' W 076°19'0 0.0
2017-Oct-12 20:31N 36°52' W 076°19'0 0.0
2017-Oct-12 20:00N 36°52' W 076°19'0 0.0
2017-Oct-12 19:30N 36°52' W 076°19'0 0.0
2017-Oct-12 19:01N 36°52' W 076°19'0 0.0
2017-Oct-12 18:31N 36°52' W 076°19'0 0.0
2017-Oct-12 18:01N 36°52' W 076°19'0 0.0
2017-Oct-12 17:31N 36°52' W 076°19'0 0.0
2017-Oct-12 17:01N 36°52' W 076°19'0 0.0
2017-Oct-12 16:31N 36°52' W 076°19'0 0.0
2017-Oct-12 16:01N 36°52' W 076°19'0 0.0
2017-Oct-12 15:31N 36°52' W 076°19'0 0.0
2017-Oct-12 15:01N 36°52' W 076°19'0 0.0
2017-Oct-12 14:31N 36°52' W 076°19'0 0.0
2017-Oct-12 14:00N 36°52' W 076°19'0 0.0
2017-Oct-12 13:31N 36°52' W 076°19'0 0.3
2017-Oct-12 13:00N 36°52' W 076°19'2 3.3
2017-Oct-12 12:28N 36°53' W 076°20'0 0.1
2017-Oct-12 11:52N 36°53' W 076°20'0 0.1
2017-Oct-12 11:24N 36°53' W 076°20'0 0.3
2017-Oct-12 10:59N 36°53' W 076°20'0 0.0
2017-Oct-12 10:30N 36°53' W 076°20'2 3.7
2017-Oct-12 10:01N 36°52' W 076°19'2 4.5
2017-Oct-12 09:28N 36°50' W 076°16'0 0.3
2017-Oct-12 08:51N 36°50' W 076°16'0 0.5
2017-Oct-12 08:30N 36°50' W 076°16'2 4.7
2017-Oct-12 08:01N 36°51' W 076°19'1 0.0
2017-Oct-10 23:03N 36°52' W 076°20'1 9.1
2017-Oct-10 22:59N 36°52' W 076°19'4 7.3
2017-Oct-10 22:29N 36°48' W 076°17'2 4.1
2017-Oct-10 21:58N 36°46' W 076°18'0 0.6
2017-Oct-10 21:28N 36°47' W 076°18'0 0.8
2017-Oct-10 20:59N 36°47' W 076°18'3 5.3
2017-Oct-10 20:30N 36°49' W 076°17'3 5.8
2017-Oct-10 19:55N 36°52' W 076°20'1 2.0
2017-Oct-10 19:16N 36°53' W 076°20'2 0.3
2017-Oct-10 13:54N 36°55' W 076°20'2 5.0
2017-Oct-10 13:30N 36°53' W 076°20'0 0.1
2017-Oct-10 12:25N 36°53' W 076°20'0 0.2
2017-Oct-10 11:43N 36°53' W 076°20'2 6.1
2017-Oct-10 11:24N 36°52' W 076°19'3 7.2
2017-Oct-10 10:58N 36°49' W 076°17'3 4.6
2017-Oct-10 10:24N 36°46' W 076°18'1 1.1
2017-Oct-10 09:43N 36°47' W 076°18'1 4.4
2017-Oct-10 09:28N 36°48' W 076°18'3 5.6
2017-Oct-10 08:59N 36°50' W 076°18'3 5.4
2017-Oct-10 08:27N 36°53' W 076°20'1 0.0
2017-Oct-08 16:36N 36°53' W 076°20'1 7.5
2017-Oct-08 16:30N 36°53' W 076°20'3 6.9
2017-Oct-08 16:00N 36°50' W 076°17'1 1.9
2017-Oct-08 15:29N 36°50' W 076°18'2 2.3
2017-Oct-08 14:47N 36°48' W 076°18'0 0.0
2017-Oct-08 14:27N 36°48' W 076°18'0 0.7
2017-Oct-08 14:00N 36°48' W 076°18'0 0.0
2017-Oct-08 13:28N 36°48' W 076°18'0 0.0
2017-Oct-08 12:58N 36°48' W 076°18'0 0.0
2017-Oct-08 12:31N 36°48' W 076°18'1 1.7
2017-Oct-08 11:48N 36°49' W 076°17'2 3.4
2017-Oct-08 11:20N 36°50' W 076°16'0 0.0
2017-Oct-08 11:00N 36°50' W 076°16'0 0.0
2017-Oct-08 10:29N 36°50' W 076°16'0 0.0
2017-Oct-08 10:00N 36°50' W 076°16'0 0.0
2017-Oct-08 09:30N 36°50' W 076°16'0 0.0
2017-Oct-08 08:56N 36°50' W 076°16'0 0.0
2017-Oct-08 08:30N 36°50' W 076°16'0 0.0
2017-Oct-08 07:57N 36°50' W 076°16'0 0.0
2017-Oct-08 07:29N 36°50' W 076°16'0 0.0
2017-Oct-08 06:59N 36°50' W 076°16'0 0.0
2017-Oct-08 06:30N 36°50' W 076°16'0 0.0
2017-Oct-08 05:59N 36°50' W 076°16'0 0.0
2017-Oct-08 05:30N 36°50' W 076°16'0 0.0
2017-Oct-07 22:38N 36°50' W 076°16'0 0.0
2017-Oct-07 22:26N 36°50' W 076°16'0 0.0
2017-Oct-07 22:00N 36°50' W 076°16'0 0.0
2017-Oct-07 21:30N 36°50' W 076°16'  
Track history (hours):
 
Tides and Currents Weather Stations Pressure Air Temp Water Temp Dewpoint Dewpoint Depression Visibility Wind Speed Wind Dir Waves Ship Positions

Jack Holland

Owner: Norfolk Tug Company, Norfolk, VA. More information available from US FCC via Universal Licensing System and Coast Guard Vessel Documentation Center.

Last reported at 2017-Oct-17 21:28 UTC. Time now 2017-Oct-19 03:37 UTC.
Position N 36°51' W 076°18'.

Length 22 m; draft 2.5 m.

Type: Tug. MMSI: 367442020.

Date/timePositionNaut miles runAvg speedWind from/ knotsBaromVisibWave heightAir tempDewpointWater temp
2017-Oct-17 21:28N 36°51' W 076°18'5 3.6
2017-Oct-17 20:08N 36°46' W 076°18'0 0.0
2017-Oct-17 20:00N 36°46' W 076°18'0 0.0
2017-Oct-17 19:23N 36°46' W 076°18'0 0.0
2017-Oct-17 18:55N 36°46' W 076°18'0 0.0
2017-Oct-17 18:06N 36°46' W 076°18'0 0.0
2017-Oct-17 17:37N 36°46' W 076°18'0 0.0
2017-Oct-17 17:14N 36°46' W 076°18'0 0.0
2017-Oct-17 16:57N 36°46' W 076°18'0 0.0
2017-Oct-17 16:30N 36°46' W 076°18'0 0.0
2017-Oct-17 15:45N 36°46' W 076°18'0 0.0
2017-Oct-17 15:10N 36°46' W 076°18'0 0.0
2017-Oct-17 14:49N 36°46' W 076°18'0 0.0
2017-Oct-17 14:30N 36°46' W 076°18'0 0.0
2017-Oct-17 13:50N 36°46' W 076°18'0 0.0
2017-Oct-17 13:29N 36°46' W 076°18'0 0.0
2017-Oct-17 13:00N 36°46' W 076°18'0 0.0
2017-Oct-17 12:13N 36°46' W 076°18'0 0.0
2017-Oct-17 11:54N 36°46' W 076°18'0 0.0
2017-Oct-17 11:00N 36°46' W 076°18'0 0.0
2017-Oct-17 10:30N 36°46' W 076°18'0 0.0
2017-Oct-17 09:49N 36°46' W 076°18'0 0.0
2017-Oct-17 09:11N 36°46' W 076°18'0 0.0
2017-Oct-17 08:40N 36°46' W 076°18'0 0.0
2017-Oct-17 08:26N 36°46' W 076°18'0 0.1
2017-Oct-17 08:00N 36°46' W 076°18'1 1.8
2017-Oct-17 07:30N 36°47' W 076°18'3 6.1
2017-Oct-17 07:00N 36°50' W 076°18'3 6.1
2017-Oct-17 06:30N 36°52' W 076°20'3 6.5
2017-Oct-17 06:00N 36°55' W 076°20'0 0.0
2017-Oct-15 23:37N 36°56' W 076°20'1 8.7
2017-Oct-15 23:27N 36°54' W 076°20'4 8.2
2017-Oct-15 23:00N 36°51' W 076°18'4 7.4
2017-Oct-15 22:30N 36°47' W 076°18'1 2.7
2017-Oct-15 22:00N 36°46' W 076°18'2 3.3
2017-Oct-15 21:30N 36°48' W 076°18'3 5.8
2017-Oct-15 21:00N 36°50' W 076°17'1 1.1
2017-Oct-15 20:30N 36°50' W 076°16'0 0.0
2017-Oct-15 20:00N 36°50' W 076°16'0 0.0
2017-Oct-15 19:30N 36°50' W 076°16'2 0.6
2017-Oct-15 15:47N 36°48' W 076°18'2 7.0
2017-Oct-15 15:30N 36°50' W 076°18'1 2.3
2017-Oct-15 15:00N 36°50' W 076°16'0 0.0
2017-Oct-15 14:00N 36°50' W 076°16'0 0.0
2017-Oct-15 13:30N 36°50' W 076°16'0 0.0
2017-Oct-15 06:39N 36°50' W 076°16'0 0.0
2017-Oct-15 06:30N 36°50' W 076°16'0 0.0
2017-Oct-15 06:00N 36°50' W 076°16'0 0.0
2017-Oct-15 05:30N 36°50' W 076°16'0 0.0
2017-Oct-15 05:00N 36°50' W 076°16'0 0.0
2017-Oct-15 04:30N 36°50' W 076°16'0 0.0
2017-Oct-15 04:00N 36°50' W 076°16'0 0.0
2017-Oct-15 03:30N 36°50' W 076°16'0 0.0
2017-Oct-15 03:00N 36°50' W 076°16'0 0.0
2017-Oct-15 02:30N 36°50' W 076°16'0 0.0
2017-Oct-15 02:00N 36°50' W 076°16'0 0.0
2017-Oct-15 01:30N 36°50' W 076°16'0 0.0
2017-Oct-15 01:00N 36°50' W 076°16'0 0.0
2017-Oct-15 00:30N 36°50' W 076°16'0 0.0
2017-Oct-15 00:00N 36°50' W 076°16'6 2.3
2017-Oct-14 21:32N 36°55' W 076°20'0 1.9
2017-Oct-14 21:29N 36°55' W 076°20'3 6.2
2017-Oct-14 21:00N 36°52' W 076°20'1 2.7
2017-Oct-14 20:30N 36°53' W 076°21'0 0.0
2017-Oct-14 19:49N 36°53' W 076°21'0 0.0
2017-Oct-14 19:30N 36°53' W 076°21'0 0.0
2017-Oct-14 18:59N 36°53' W 076°21'0 0.0
2017-Oct-14 18:30N 36°53' W 076°21'0 0.0
2017-Oct-14 16:47N 36°53' W 076°21'0 0.0
2017-Oct-14 16:26N 36°53' W 076°21'1 2.6
2017-Oct-14 15:59N 36°52' W 076°20'3 6.9
2017-Oct-14 15:30N 36°50' W 076°16'0 0.1
2017-Oct-14 14:48N 36°50' W 076°16'0 0.0
2017-Oct-14 14:29N 36°50' W 076°16'0 0.0
2017-Oct-14 14:00N 36°50' W 076°16'0 0.6
2017-Oct-14 13:30N 36°50' W 076°17'1 1.8
2017-Oct-14 13:00N 36°50' W 076°18'3 6.8
2017-Oct-14 12:30N 36°47' W 076°18'1 1.9
2017-Oct-14 12:00N 36°46' W 076°18'0 0.4
2017-Oct-14 11:30N 36°46' W 076°18'1 2.6
2017-Oct-14 11:00N 36°48' W 076°18'3 5.3
2017-Oct-14 10:30N 36°50' W 076°18'3 6.1
2017-Oct-14 10:00N 36°53' W 076°20'3 0.1
2017-Oct-13 02:00N 36°56' W 076°20'4 8.0
2017-Oct-13 01:30N 36°52' W 076°19'3 5.4
2017-Oct-13 01:00N 36°50' W 076°16'0 0.1
2017-Oct-13 00:30N 36°50' W 076°16'0 0.1
2017-Oct-13 00:00N 36°50' W 076°16'0 0.0
2017-Oct-12 23:30N 36°50' W 076°16'2 4.1
2017-Oct-12 23:00N 36°51' W 076°18'2 4.7
2017-Oct-12 22:31N 36°53' W 076°20'0 0.6
2017-Oct-12 21:59N 36°53' W 076°20'2 3.2
2017-Oct-12 21:31N 36°52' W 076°19'0 0.0
2017-Oct-12 21:00N 36°52' W 076°19'0 0.0
2017-Oct-12 20:31N 36°52' W 076°19'0 0.0
2017-Oct-12 20:00N 36°52' W 076°19'0 0.0
2017-Oct-12 19:30N 36°52' W 076°19'0 0.0
2017-Oct-12 19:01N 36°52' W 076°19'0 0.0
2017-Oct-12 18:31N 36°52' W 076°19'0 0.0
2017-Oct-12 18:01N 36°52' W 076°19'0 0.0
2017-Oct-12 17:31N 36°52' W 076°19'0 0.0
2017-Oct-12 17:01N 36°52' W 076°19'0 0.0
2017-Oct-12 16:31N 36°52' W 076°19'0 0.0
2017-Oct-12 16:01N 36°52' W 076°19'0 0.0
2017-Oct-12 15:31N 36°52' W 076°19'0 0.0
2017-Oct-12 15:01N 36°52' W 076°19'0 0.0
2017-Oct-12 14:31N 36°52' W 076°19'0 0.0
2017-Oct-12 14:00N 36°52' W 076°19'0 0.0
2017-Oct-12 13:31N 36°52' W 076°19'0 0.3
2017-Oct-12 13:00N 36°52' W 076°19'2 3.3
2017-Oct-12 12:28N 36°53' W 076°20'0 0.1
2017-Oct-12 11:52N 36°53' W 076°20'0 0.1
2017-Oct-12 11:24N 36°53' W 076°20'0 0.3
2017-Oct-12 10:59N 36°53' W 076°20'0 0.0
2017-Oct-12 10:30N 36°53' W 076°20'2 3.7
2017-Oct-12 10:01N 36°52' W 076°19'2 4.5
2017-Oct-12 09:28N 36°50' W 076°16'0 0.3
2017-Oct-12 08:51N 36°50' W 076°16'0 0.5
2017-Oct-12 08:30N 36°50' W 076°16'2 4.7
2017-Oct-12 08:01N 36°51' W 076°19'1 0.0
2017-Oct-10 23:03N 36°52' W 076°20'1 9.1
2017-Oct-10 22:59N 36°52' W 076°19'4 7.3
2017-Oct-10 22:29N 36°48' W 076°17'2 4.1
2017-Oct-10 21:58N 36°46' W 076°18'0 0.6
2017-Oct-10 21:28N 36°47' W 076°18'0 0.8
2017-Oct-10 20:59N 36°47' W 076°18'3 5.3
2017-Oct-10 20:30N 36°49' W 076°17'3 5.8
2017-Oct-10 19:55N 36°52' W 076°20'1 2.0
2017-Oct-10 19:16N 36°53' W 076°20'2 0.3
2017-Oct-10 13:54N 36°55' W 076°20'2 5.0
2017-Oct-10 13:30N 36°53' W 076°20'0 0.1
2017-Oct-10 12:25N 36°53' W 076°20'0 0.2
2017-Oct-10 11:43N 36°53' W 076°20'2 6.1
2017-Oct-10 11:24N 36°52' W 076°19'3 7.2
2017-Oct-10 10:58N 36°49' W 076°17'3 4.6
2017-Oct-10 10:24N 36°46' W 076°18'1 1.1
2017-Oct-10 09:43N 36°47' W 076°18'1 4.4
2017-Oct-10 09:28N 36°48' W 076°18'3 5.6
2017-Oct-10 08:59N 36°50' W 076°18'3 5.4
2017-Oct-10 08:27N 36°53' W 076°20'1 0.0
2017-Oct-08 16:36N 36°53' W 076°20'1 7.5
2017-Oct-08 16:30N 36°53' W 076°20'3 6.9
2017-Oct-08 16:00N 36°50' W 076°17'1 1.9
2017-Oct-08 15:29N 36°50' W 076°18'2 2.3
2017-Oct-08 14:47N 36°48' W 076°18'0 0.0
2017-Oct-08 14:27N 36°48' W 076°18'0 0.7
2017-Oct-08 14:00N 36°48' W 076°18'0 0.0
2017-Oct-08 13:28N 36°48' W 076°18'0 0.0
2017-Oct-08 12:58N 36°48' W 076°18'0 0.0
2017-Oct-08 12:31N 36°48' W 076°18'1 1.7
2017-Oct-08 11:48N 36°49' W 076°17'2 3.4
2017-Oct-08 11:20N 36°50' W 076°16'0 0.0
2017-Oct-08 11:00N 36°50' W 076°16'0 0.0
2017-Oct-08 10:29N 36°50' W 076°16'0 0.0
2017-Oct-08 10:00N 36°50' W 076°16'0 0.0
2017-Oct-08 09:30N 36°50' W 076°16'0 0.0
2017-Oct-08 08:56N 36°50' W 076°16'0 0.0
2017-Oct-08 08:30N 36°50' W 076°16'0 0.0
2017-Oct-08 07:57N 36°50' W 076°16'0 0.0
2017-Oct-08 07:29N 36°50' W 076°16'0 0.0
2017-Oct-08 06:59N 36°50' W 076°16'0 0.0
2017-Oct-08 06:30N 36°50' W 076°16'0 0.0
2017-Oct-08 05:59N 36°50' W 076°16'0 0.0
2017-Oct-08 05:30N 36°50' W 076°16'0 0.0
2017-Oct-07 22:38N 36°50' W 076°16'0 0.0
2017-Oct-07 22:26N 36°50' W 076°16'0 0.0
2017-Oct-07 22:00N 36°50' W 076°16'0 0.0
2017-Oct-07 21:30N 36°50' W 076°16'  

Dump ship's entire track history